Time;durP1;ratioP1;P1;durP2;ratioP2;P2;SDS_P1;SDS_P2;PMS_P1;PMS_P2;Temp;Humidity;BMP_temperature;BMP_pressure;BME280_temperature;BME280_humidity;BME280_pressure;Samples;Min_cycle;Max_cycle;Signal;HPM_P1;HPM_P2
2023/06/12 00:08:32;;;;;;;5.32;4.57;;;11.00;99.90;;;;;;21070397;28;20122;-49
2023/06/12 00:18:35;;;;;;;7.20;5.40;;;10.90;99.90;;;;;;21051440;28;20077;-45
2023/06/12 00:28:37;;;;;;;7.43;4.90;;;10.70;99.90;;;;;;21068364;28;20036;-49
2023/06/12 00:38:38;;;;;;;7.45;5.35;;;10.60;99.90;;;;;;21068296;28;20101;-42
2023/06/12 00:48:41;;;;;;;8.82;5.45;;;10.60;99.90;;;;;;21068384;28;20024;-45
2023/06/12 00:58:42;;;;;;;7.07;5.90;;;10.60;99.90;;;;;;21048520;28;20028;-52
2023/06/12 01:09:00;;;;;;;9.38;6.40;;;10.60;99.90;;;;;;21047779;28;20074;-50
2023/06/12 01:19:05;;;;;;;9.80;6.72;;;10.50;99.90;;;;;;21044130;28;20093;-45
2023/06/12 01:29:07;;;;;;;9.57;6.65;;;10.50;99.90;;;;;;21046903;28;20036;-51
2023/06/12 01:39:12;;;;;;;12.85;7.78;;;10.40;99.90;;;;;;21047877;28;20044;-44
2023/06/12 01:49:14;;;;;;;7.95;6.30;;;10.40;99.90;;;;;;21046439;28;20546;-50
2023/06/12 01:59:15;;;;;;;12.85;7.75;;;10.30;99.90;;;;;;21046146;28;20044;-43
2023/06/12 02:09:21;;;;;;;10.48;6.57;;;10.20;99.90;;;;;;21046134;28;20036;-44
2023/06/12 02:19:25;;;;;;;12.65;6.72;;;10.10;99.90;;;;;;21069909;28;20467;-46
2023/06/12 02:29:27;;;;;;;8.88;6.68;;;10.20;99.90;;;;;;21060213;28;20043;-47
2023/06/12 02:39:31;;;;;;;7.90;6.18;;;10.20;99.90;;;;;;21075728;28;20040;-48
2023/06/12 02:49:38;;;;;;;9.25;6.13;;;10.20;99.90;;;;;;21056651;28;20557;-50
2023/06/12 02:59:40;;;;;;;6.82;5.63;;;10.10;99.90;;;;;;21057249;28;20039;-45
2023/06/12 03:09:50;;;;;;;7.00;5.50;;;10.00;99.90;;;;;;21058010;28;20089;-44
2023/06/12 03:19:52;;;;;;;9.20;5.80;;;9.90;99.90;;;;;;21056054;28;20040;-47
2023/06/12 03:29:54;;;;;;;8.07;5.95;;;9.80;99.90;;;;;;21072400;28;20036;-44
2023/06/12 03:39:57;;;;;;;8.07;6.05;;;9.70;99.90;;;;;;21054669;28;20052;-45
2023/06/12 03:49:58;;;;;;;8.68;6.22;;;9.70;99.90;;;;;;21071840;28;20097;-44
2023/06/12 04:00:02;;;;;;;9.00;5.85;;;9.80;99.90;;;;;;21052796;28;20468;-44
2023/06/12 04:10:10;;;;;;;7.43;6.30;;;9.90;99.90;;;;;;21070202;28;20031;-43
2023/06/12 04:20:12;;;;;;;8.65;6.82;;;10.00;99.90;;;;;;21051513;28;20031;-46
2023/06/12 04:30:15;;;;;;;7.38;5.80;;;10.10;99.90;;;;;;21068671;28;20028;-47
2023/06/12 04:40:17;;;;;;;7.50;6.28;;;10.10;99.90;;;;;;21049749;28;20106;-50
2023/06/12 04:50:18;;;;;;;8.80;6.50;;;10.30;99.90;;;;;;21067952;28;20065;-53
2023/06/12 05:00:20;;;;;;;7.45;6.10;;;10.50;99.90;;;;;;21066621;28;20043;-45
2023/06/12 05:10:22;;;;;;;7.30;5.97;;;10.60;99.90;;;;;;21048261;28;20073;-47
2023/06/12 05:20:25;;;;;;;7.22;6.20;;;10.70;99.90;;;;;;21047667;28;20032;-52
2023/06/12 05:30:27;;;;;;;7.57;6.40;;;10.80;99.90;;;;;;21042999;28;20027;-47
2023/06/12 05:40:29;;;;;;;9.18;6.35;;;10.90;99.90;;;;;;21046696;28;20040;-46
2023/06/12 05:50:31;;;;;;;6.53;5.10;;;11.10;99.90;;;;;;21064545;28;20081;-45
2023/06/12 06:00:32;;;;;;;6.00;5.05;;;11.40;99.90;;;;;;21061000;28;20039;-47
2023/06/12 06:10:36;;;;;;;4.47;3.08;;;11.80;99.90;;;;;;21056878;28;20036;-45
2023/06/12 06:20:38;;;;;;;3.47;2.75;;;14.20;99.90;;;;;;21060160;28;20109;-45
2023/06/12 06:30:41;;;;;;;2.60;2.00;;;18.20;99.90;;;;;;21075479;28;20148;-52
2023/06/12 06:40:42;;;;;;;2.67;2.10;;;21.30;99.90;;;;;;21077599;28;20052;-54
2023/06/12 06:50:49;;;;;;;2.42;2.22;;;23.70;99.90;;;;;;21056066;28;20048;-54
2023/06/12 07:00:51;;;;;;;2.97;2.40;;;25.20;97.80;;;;;;21088699;28;20050;-47
2023/06/12 07:10:53;;;;;;;4.22;2.95;;;26.40;95.50;;;;;;21052204;28;20031;-55
2023/06/12 07:20:55;;;;;;;3.30;2.92;;;26.60;94.50;;;;;;21052656;28;20029;-54
2023/06/12 07:30:57;;;;;;;5.60;2.90;;;26.10;92.40;;;;;;21069426;28;20031;-55
2023/06/12 07:40:59;;;;;;;4.03;3.58;;;23.50;95.60;;;;;;21052239;28;20453;-48
2023/06/12 07:51:02;;;;;;;3.22;2.90;;;22.20;98.80;;;;;;21046309;28;20470;-52
2023/06/12 08:01:05;;;;;;;4.68;3.05;;;21.20;99.90;;;;;;21053912;28;20028;-48
2023/06/12 08:11:09;;;;;;;3.40;3.10;;;20.70;99.90;;;;;;21052080;28;20494;-49
2023/06/12 08:21:11;;;;;;;4.60;3.30;;;20.30;99.90;;;;;;21063119;28;20028;-50
2023/06/12 08:31:13;;;;;;;4.05;3.50;;;20.20;99.90;;;;;;21068767;28;20040;-51
2023/06/12 08:41:18;;;;;;;3.88;3.10;;;20.90;99.90;;;;;;21050005;28;20043;-52
2023/06/12 08:51:23;;;;;;;5.25;3.47;;;20.70;99.90;;;;;;21067631;28;20028;-51
2023/06/12 09:01:28;;;;;;;3.67;3.30;;;20.40;99.90;;;;;;21059654;28;20054;-50
2023/06/12 09:11:34;;;;;;;3.10;2.80;;;21.20;99.90;;;;;;21063585;28;20032;-53
2023/06/12 09:21:36;;;;;;;5.35;3.50;;;22.10;99.90;;;;;;21064035;28;20024;-47
2023/06/12 09:31:41;;;;;;;3.30;2.90;;;24.00;99.90;;;;;;21075929;28;20032;-56
2023/06/12 09:41:49;;;;;;;3.60;3.30;;;24.90;98.60;;;;;;21081061;28;20101;-55
2023/06/12 09:51:51;;;;;;;4.20;3.20;;;24.90;98.00;;;;;;21081134;28;20036;-56
2023/06/12 10:02:00;;;;;;;3.50;3.20;;;25.00;98.60;;;;;;21075396;28;20032;-50
2023/06/12 10:12:02;;;;;;;3.58;3.28;;;25.70;96.90;;;;;;21078055;28;20028;-49
2023/06/12 10:22:07;;;;;;;4.82;4.22;;;25.50;96.50;;;;;;21078316;28;20059;-56
2023/06/12 10:32:10;;;;;;;4.78;4.05;;;26.00;95.40;;;;;;21077264;28;20036;-56
2023/06/12 10:42:17;;;;;;;5.35;4.13;;;25.00;97.60;;;;;;21045460;28;20853;-55
2023/06/12 10:52:22;;;;;;;4.80;4.30;;;24.80;98.40;;;;;;21076359;28;20032;-54
2023/06/12 11:02:24;;;;;;;5.90;5.30;;;24.80;98.10;;;;;;21072546;28;20418;-45
2023/06/12 11:12:26;;;;;;;6.25;5.65;;;23.30;99.90;;;;;;21074462;28;20031;-51
2023/06/12 11:22:28;;;;;;;8.00;5.63;;;23.60;99.20;;;;;;21074008;28;20512;-50
2023/06/12 11:32:30;;;;;;;5.90;4.90;;;22.20;99.90;;;;;;21072461;28;20035;-49
2023/06/12 11:42:32;;;;;;;5.18;4.70;;;22.50;99.90;;;;;;21071495;28;20052;-49
2023/06/12 11:52:36;;;;;;;4.68;4.20;;;23.30;99.50;;;;;;21070593;28;20035;-56
2023/06/12 12:02:43;;;;;;;4.80;4.40;;;24.60;99.90;;;;;;21067405;28;20378;-56
2023/06/12 12:12:46;;;;;;;5.78;3.92;;;25.90;99.80;;;;;;21069382;28;20028;-57
2023/06/12 12:22:57;;;;;;;5.57;5.00;;;26.80;97.80;;;;;;21069184;28;20369;-57
2023/06/12 12:32:59;;;;;;;5.05;4.38;;;27.50;96.50;;;;;;21067450;28;20051;-57
2023/06/12 12:43:02;;;;;;;5.85;4.00;;;27.20;98.00;;;;;;21067266;28;20044;-54
2023/06/12 12:53:05;;;;;;;4.82;4.32;;;26.00;98.00;;;;;;21066993;28;20028;-53
2023/06/12 13:03:08;;;;;;;4.15;3.75;;;25.60;97.20;;;;;;21049965;28;20032;-52
2023/06/12 13:13:14;;;;;;;3.45;3.15;;;25.00;98.10;;;;;;21064965;28;20389;-55
2023/06/12 13:23:16;;;;;;;4.60;3.33;;;25.20;97.10;;;;;;21045054;28;20078;-56
2023/06/12 13:33:19;;;;;;;3.85;3.28;;;25.90;97.00;;;;;;21063255;28;20024;-56
2023/06/12 13:43:21;;;;;;;6.13;3.53;;;26.20;98.10;;;;;;21046887;28;20093;-56
2023/06/12 13:53:24;;;;;;;5.97;3.72;;;26.20;95.50;;;;;;21064823;28;20086;-56
2023/06/12 14:03:26;;;;;;;3.40;2.70;;;25.90;95.70;;;;;;21061423;28;20483;-56
2023/06/12 14:13:28;;;;;;;3.38;2.40;;;26.10;96.90;;;;;;21065344;28;20036;-55
2023/06/12 14:23:30;;;;;;;6.43;2.60;;;25.70;94.20;;;;;;21060293;28;20040;-54
2023/06/12 14:33:32;;;;;;;8.43;3.90;;;26.30;92.20;;;;;;21077218;28;20366;-49
2023/06/12 14:43:33;;;;;;;5.10;3.78;;;26.60;94.30;;;;;;21076807;28;20061;-55
2023/06/12 14:53:35;;;;;;;8.27;4.65;;;26.90;93.10;;;;;;21054585;28;20028;-55
2023/06/12 15:03:37;;;;;;;24.23;5.10;;;26.70;93.50;;;;;;21066964;28;20063;-48
2023/06/12 15:13:39;;;;;;;5.75;5.22;;;25.20;93.60;;;;;;21071634;28;20096;-52
2023/06/12 15:23:41;;;;;;;5.50;5.00;;;24.70;97.00;;;;;;21073242;28;20105;-55
2023/06/12 15:33:42;;;;;;;5.15;4.55;;;26.50;92.30;;;;;;21072990;28;20035;-55
2023/06/12 15:43:44;;;;;;;5.18;4.65;;;26.50;92.40;;;;;;21072825;28;20093;-52
2023/06/12 15:53:46;;;;;;;5.65;5.13;;;23.50;96.60;;;;;;21072197;28;20471;-54
2023/06/12 16:03:47;;;;;;;6.45;5.57;;;22.00;98.90;;;;;;21071079;28;20095;-52
2023/06/12 16:13:49;;;;;;;6.65;5.97;;;21.30;99.80;;;;;;21069916;28;20400;-49
2023/06/12 16:23:51;;;;;;;6.65;6.07;;;20.40;99.90;;;;;;21069762;28;20073;-48
2023/06/12 16:33:52;;;;;;;8.32;7.47;;;19.40;99.90;;;;;;21069056;28;20592;-46
2023/06/12 16:43:54;;;;;;;10.95;8.90;;;19.10;99.90;;;;;;21047944;28;20040;-48
2023/06/12 16:53:56;;;;;;;10.50;9.35;;;19.10;99.90;;;;;;21049456;28;20036;-50
2023/06/12 17:03:58;;;;;;;12.60;8.57;;;19.40;99.90;;;;;;21048386;28;20040;-50
2023/06/12 17:13:59;;;;;;;8.95;8.15;;;19.30;99.90;;;;;;21066000;28;20028;-52
2023/06/12 17:24:01;;;;;;;10.63;9.55;;;18.60;99.90;;;;;;21066313;28;20042;-49
2023/06/12 17:34:03;;;;;;;11.93;9.48;;;18.10;99.90;;;;;;21067274;28;20104;-49
2023/06/12 17:44:05;;;;;;;14.43;11.13;;;17.60;99.90;;;;;;21065140;28;20043;-48
2023/06/12 17:54:06;;;;;;;13.52;11.32;;;17.10;99.90;;;;;;21078311;28;20039;-47
2023/06/12 18:04:08;;;;;;;16.35;12.43;;;16.80;99.90;;;;;;21076710;28;20043;-48
2023/06/12 18:14:10;;;;;;;17.25;11.00;;;16.50;99.90;;;;;;21079638;28;20047;-48
2023/06/12 18:24:11;;;;;;;13.00;11.60;;;16.00;99.90;;;;;;21079540;28;20036;-51
2023/06/12 18:34:13;;;;;;;12.82;11.43;;;15.80;99.90;;;;;;21075863;28;20040;-51
2023/06/12 18:44:16;;;;;;;13.20;11.70;;;15.60;99.90;;;;;;21077630;28;20036;-50
2023/06/12 18:54:19;;;;;;;14.15;12.10;;;15.50;99.90;;;;;;21076881;28;20032;-48
2023/06/12 19:04:21;;;;;;;12.65;11.35;;;15.20;99.90;;;;;;21075818;28;20062;-49
2023/06/12 19:14:23;;;;;;;17.42;12.75;;;15.10;99.90;;;;;;21074289;28;20501;-48
2023/06/12 19:24:25;;;;;;;15.38;13.32;;;14.90;99.90;;;;;;21074855;28;20024;-47
2023/06/12 19:34:27;;;;;;;17.38;13.75;;;14.40;99.90;;;;;;21073847;28;20044;-48
2023/06/12 19:44:29;;;;;;;19.90;15.98;;;14.30;99.90;;;;;;21072809;28;20036;-44
2023/06/12 19:54:31;;;;;;;24.98;17.63;;;14.00;99.90;;;;;;21072211;28;20032;-50
2023/06/12 20:04:33;;;;;;;27.60;20.75;;;13.70;99.90;;;;;;21071026;28;20447;-51
2023/06/12 20:14:35;;;;;;;19.02;16.40;;;13.90;99.90;;;;;;21069495;28;20427;-50
2023/06/12 20:24:37;;;;;;;23.05;18.05;;;14.20;99.90;;;;;;21070179;28;20031;-49
2023/06/12 20:34:39;;;;;;;20.02;15.98;;;14.40;99.90;;;;;;21049561;28;20032;-47
2023/06/12 20:44:41;;;;;;;20.55;16.38;;;14.30;99.90;;;;;;21065038;28;20032;-48
2023/06/12 20:54:43;;;;;;;19.95;16.20;;;14.30;99.90;;;;;;21064395;28;20036;-45
2023/06/12 21:04:46;;;;;;;22.70;15.57;;;14.10;99.90;;;;;;21063682;28;20040;-48
2023/06/12 21:14:48;;;;;;;20.52;15.02;;;13.90;99.90;;;;;;21062683;28;20081;-52
2023/06/12 21:24:50;;;;;;;22.77;16.15;;;13.80;99.90;;;;;;21061762;28;20032;-48
2023/06/12 21:34:52;;;;;;;18.52;14.85;;;13.60;99.90;;;;;;21010350;28;1436039;-47
2023/06/12 21:44:54;;;;;;;22.48;15.80;;;13.50;99.90;;;;;;21065140;28;20109;-47
2023/06/12 21:54:56;;;;;;;18.67;14.00;;;13.50;99.90;;;;;;21065024;28;20062;-47
2023/06/12 22:04:57;;;;;;;25.85;17.05;;;13.60;99.90;;;;;;21064172;28;20440;-49
2023/06/12 22:14:59;;;;;;;22.27;15.93;;;13.50;99.90;;;;;;21065057;28;20473;-49
2023/06/12 22:25:01;;;;;;;26.50;18.05;;;13.50;99.90;;;;;;21063902;28;20028;-47
2023/06/12 22:35:02;;;;;;;26.00;18.85;;;13.40;99.90;;;;;;21049057;28;20143;-49
2023/06/12 22:45:05;;;;;;;26.10;18.17;;;13.30;99.90;;;;;;21077723;28;20044;-48
2023/06/12 22:55:10;;;;;;;23.67;16.45;;;13.20;99.90;;;;;;21076804;28;20044;-44
2023/06/12 23:05:14;;;;;;;10.07;7.70;;;13.20;99.90;;;;;;21058023;28;20389;-47
2023/06/12 23:15:15;;;;;;;10.02;7.28;;;13.10;99.90;;;;;;21075213;28;20044;-51
2023/06/12 23:25:18;;;;;;;7.00;5.75;;;13.10;99.90;;;;;;21086602;28;20062;-49
2023/06/12 23:35:21;;;;;;;6.85;5.43;;;13.00;99.90;;;;;;21073534;28;20390;-49
2023/06/12 23:45:24;;;;;;;9.73;7.28;;;13.00;99.90;;;;;;21070810;28;20040;-47
2023/06/12 23:55:26;;;;;;;15.05;10.20;;;12.80;99.90;;;;;;21071636;28;20401;-45
